Ampthill, United Kingdom

12:14 PM GMT on December 06, 2016 (GMT +0000)
Ampthill | | Change Station

Elev 302 ft 52.02 °N, 0.50 °W | Updated 32 seconds ago

Fog
Fog
43.9 °F
Feels Like 44 °F
N
0.0
Wind Variable Wind from West
Gusts 0.0 mph

Today
High -- | Low -- °F
--% Chance of Precip.
Yesterday
High -- | Low -- °F
Precip. -- in
Pressure 30.30 in
Visibility 0.1 miles
Clouds
Windchill 44 °F
Dew Point 43 °F
Humidity 96%
Rainfall 0.00 in
Snow Depth Not available.
7:54 AM 3:51 PM
Waxing Crescent, 41% visible
METAR EGTC 061150Z 19005KT 0200 FG VV/// 07/07 Q1026
Pressure 30.30 in
Visibility 0.1 miles
Clouds
Windchill 44 °F
Dew Point 43 °F
Humidity 96%
Rainfall 0.00 in
Snow Depth Not available.
7:54 AM 3:51 PM
Waxing Crescent, 41% visible
METAR EGTC 061150Z 19005KT 0200 FG VV/// 07/07 Q1026

10-Day Weather Forecast

×

Almanac

Astronomy

Dec. 06, 2016 Rise Set
Actual Time
Civil Twilight
Nautical Twilight
Astronomical Twilight
Moon
Length of Visible Light
Length of Day
Tomorrow will be .
, % of the Moon is Illuminated

Today's Extremes

Country Highs Country Lows

Community

WunderPhotos

Upload Photos

1,955,936 photos uploaded!

WunderBlog® & News

Nearby

Air Quality

  Air Quality AQ Index Pollutant
Not available.

Snow Depth

Station Depth Elevation

Earthquake Activity

City Distance Mag. Time & Date
Minimum magnitude displayed is 2.5.

Coastal Water Temperatures

Place Temperature

Stations

Nearby Weather Stations

Station Location Temp. Windchill Dew Point Humidity Wind Precip. Elev Updated Type